sensor_id;sensor_type;location;lat;lon;timestamp;temperature;humidity
3001;DHT22;1510;51.072;6.678;2023-08-08T00:00:53;12.40;99.90
3001;DHT22;1510;51.072;6.678;2023-08-08T00:03:20;12.40;99.90
3001;DHT22;1510;51.072;6.678;2023-08-08T00:05:47;12.30;99.90
3001;DHT22;1510;51.072;6.678;2023-08-08T00:08:15;12.20;99.90
3001;DHT22;1510;51.072;6.678;2023-08-08T00:10:42;12.20;99.90
3001;DHT22;1510;51.072;6.678;2023-08-08T00:13:08;12.10;99.90
3001;DHT22;1510;51.072;6.678;2023-08-08T00:15:35;12.10;99.90
3001;DHT22;1510;51.072;6.678;2023-08-08T00:18:03;12.00;99.90
3001;DHT22;1510;51.072;6.678;2023-08-08T00:20:29;12.00;99.90
3001;DHT22;1510;51.072;6.678;2023-08-08T00:22:56;12.00;99.90
3001;DHT22;1510;51.072;6.678;2023-08-08T00:25:24;12.00;99.90
3001;DHT22;1510;51.072;6.678;2023-08-08T00:27:51;11.90;99.90
3001;DHT22;1510;51.072;6.678;2023-08-08T00:30:18;12.00;99.90
3001;DHT22;1510;51.072;6.678;2023-08-08T00:32:45;12.00;99.90
3001;DHT22;1510;51.072;6.678;2023-08-08T00:35:12;11.90;99.90
3001;DHT22;1510;51.072;6.678;2023-08-08T00:37:39;11.90;99.90
3001;DHT22;1510;51.072;6.678;2023-08-08T00:40:07;11.90;99.90
3001;DHT22;1510;51.072;6.678;2023-08-08T00:42:35;12.00;99.90
3001;DHT22;1510;51.072;6.678;2023-08-08T00:45:02;12.00;99.90
3001;DHT22;1510;51.072;6.678;2023-08-08T00:47:30;12.20;99.90
3001;DHT22;1510;51.072;6.678;2023-08-08T00:49:58;12.20;99.90
3001;DHT22;1510;51.072;6.678;2023-08-08T00:52:26;12.30;99.90
3001;DHT22;1510;51.072;6.678;2023-08-08T00:54:53;12.30;99.90
3001;DHT22;1510;51.072;6.678;2023-08-08T00:57:20;12.40;99.90
3001;DHT22;1510;51.072;6.678;2023-08-08T00:59:48;12.40;99.90
3001;DHT22;1510;51.072;6.678;2023-08-08T01:02:15;12.40;99.90
3001;DHT22;1510;51.072;6.678;2023-08-08T01:04:42;12.40;99.90
3001;DHT22;1510;51.072;6.678;2023-08-08T01:07:25;12.50;99.90
3001;DHT22;1510;51.072;6.678;2023-08-08T01:09:58;12.60;99.90
3001;DHT22;1510;51.072;6.678;2023-08-08T01:12:30;12.60;99.90
3001;DHT22;1510;51.072;6.678;2023-08-08T01:14:59;12.60;99.90
3001;DHT22;1510;51.072;6.678;2023-08-08T01:17:26;12.60;99.90
3001;DHT22;1510;51.072;6.678;2023-08-08T01:19:53;12.60;99.90
3001;DHT22;1510;51.072;6.678;2023-08-08T01:22:24;12.50;99.90
3001;DHT22;1510;51.072;6.678;2023-08-08T01:24:54;12.50;99.90
3001;DHT22;1510;51.072;6.678;2023-08-08T01:27:22;12.50;99.90
3001;DHT22;1510;51.072;6.678;2023-08-08T01:29:49;12.50;99.90
3001;DHT22;1510;51.072;6.678;2023-08-08T01:32:16;12.50;99.90
3001;DHT22;1510;51.072;6.678;2023-08-08T01:34:43;12.40;99.90
3001;DHT22;1510;51.072;6.678;2023-08-08T01:37:14;12.40;99.90
3001;DHT22;1510;51.072;6.678;2023-08-08T01:39:44;12.40;99.90
3001;DHT22;1510;51.072;6.678;2023-08-08T01:42:15;12.40;99.90
3001;DHT22;1510;51.072;6.678;2023-08-08T01:44:43;12.40;99.90
3001;DHT22;1510;51.072;6.678;2023-08-08T01:47:10;12.40;99.90
3001;DHT22;1510;51.072;6.678;2023-08-08T01:49:36;12.40;99.90
3001;DHT22;1510;51.072;6.678;2023-08-08T01:52:04;12.40;99.90
3001;DHT22;1510;51.072;6.678;2023-08-08T01:54:31;12.40;99.90
3001;DHT22;1510;51.072;6.678;2023-08-08T01:56:58;12.50;99.90
3001;DHT22;1510;51.072;6.678;2023-08-08T01:59:26;12.40;99.90
3001;DHT22;1510;51.072;6.678;2023-08-08T02:01:53;12.40;99.90
3001;DHT22;1510;51.072;6.678;2023-08-08T02:04:20;12.40;99.90
3001;DHT22;1510;51.072;6.678;2023-08-08T02:06:47;12.30;99.90
3001;DHT22;1510;51.072;6.678;2023-08-08T02:09:14;12.20;99.90
3001;DHT22;1510;51.072;6.678;2023-08-08T02:11:41;12.30;99.90
3001;DHT22;1510;51.072;6.678;2023-08-08T02:14:08;12.40;99.90
3001;DHT22;1510;51.072;6.678;2023-08-08T02:16:36;12.40;99.90
3001;DHT22;1510;51.072;6.678;2023-08-08T02:19:05;12.50;99.90
3001;DHT22;1510;51.072;6.678;2023-08-08T02:21:31;12.60;99.90
3001;DHT22;1510;51.072;6.678;2023-08-08T02:23:58;12.60;99.90
3001;DHT22;1510;51.072;6.678;2023-08-08T02:26:25;12.70;99.90
3001;DHT22;1510;51.072;6.678;2023-08-08T02:28:52;12.60;99.90
3001;DHT22;1510;51.072;6.678;2023-08-08T02:31:19;12.60;99.90
3001;DHT22;1510;51.072;6.678;2023-08-08T02:33:49;12.60;99.90
3001;DHT22;1510;51.072;6.678;2023-08-08T02:36:16;12.60;99.90
3001;DHT22;1510;51.072;6.678;2023-08-08T02:38:44;12.50;99.90
3001;DHT22;1510;51.072;6.678;2023-08-08T02:41:10;12.50;99.90
3001;DHT22;1510;51.072;6.678;2023-08-08T02:43:37;12.40;99.90
3001;DHT22;1510;51.072;6.678;2023-08-08T02:46:04;12.50;99.90
3001;DHT22;1510;51.072;6.678;2023-08-08T02:48:31;12.40;99.90
3001;DHT22;1510;51.072;6.678;2023-08-08T02:50:59;12.30;99.90
3001;DHT22;1510;51.072;6.678;2023-08-08T02:53:26;12.30;99.90
3001;DHT22;1510;51.072;6.678;2023-08-08T02:55:53;12.30;99.90
3001;DHT22;1510;51.072;6.678;2023-08-08T02:58:20;12.30;99.90
3001;DHT22;1510;51.072;6.678;2023-08-08T03:00:47;12.30;99.90
3001;DHT22;1510;51.072;6.678;2023-08-08T03:03:13;12.30;99.90
3001;DHT22;1510;51.072;6.678;2023-08-08T03:05:40;12.40;99.90
3001;DHT22;1510;51.072;6.678;2023-08-08T03:08:08;12.30;99.90
3001;DHT22;1510;51.072;6.678;2023-08-08T03:10:35;12.40;99.90
3001;DHT22;1510;51.072;6.678;2023-08-08T03:13:02;12.30;99.90
3001;DHT22;1510;51.072;6.678;2023-08-08T03:15:29;12.30;99.90
3001;DHT22;1510;51.072;6.678;2023-08-08T03:17:56;12.30;99.90
3001;DHT22;1510;51.072;6.678;2023-08-08T03:20:23;12.30;99.90
3001;DHT22;1510;51.072;6.678;2023-08-08T03:22:50;12.30;99.90
3001;DHT22;1510;51.072;6.678;2023-08-08T03:25:18;12.30;99.90
3001;DHT22;1510;51.072;6.678;2023-08-08T03:27:45;12.20;99.90
3001;DHT22;1510;51.072;6.678;2023-08-08T03:30:13;12.20;99.90
3001;DHT22;1510;51.072;6.678;2023-08-08T03:32:40;12.20;99.90
3001;DHT22;1510;51.072;6.678;2023-08-08T03:35:07;12.20;99.90
3001;DHT22;1510;51.072;6.678;2023-08-08T03:37:34;12.20;99.90
3001;DHT22;1510;51.072;6.678;2023-08-08T03:40:02;12.20;99.90
3001;DHT22;1510;51.072;6.678;2023-08-08T03:42:30;12.30;99.90
3001;DHT22;1510;51.072;6.678;2023-08-08T03:44:57;12.20;99.90
3001;DHT22;1510;51.072;6.678;2023-08-08T03:47:24;12.20;99.90
3001;DHT22;1510;51.072;6.678;2023-08-08T03:49:51;12.20;99.90
3001;DHT22;1510;51.072;6.678;2023-08-08T03:52:20;12.20;99.90
3001;DHT22;1510;51.072;6.678;2023-08-08T03:54:47;12.20;99.90
3001;DHT22;1510;51.072;6.678;2023-08-08T03:57:14;12.20;99.90
3001;DHT22;1510;51.072;6.678;2023-08-08T03:59:42;12.20;99.90
3001;DHT22;1510;51.072;6.678;2023-08-08T04:02:09;12.20;99.90
3001;DHT22;1510;51.072;6.678;2023-08-08T04:04:36;12.30;99.90
3001;DHT22;1510;51.072;6.678;2023-08-08T04:07:04;12.30;99.90
3001;DHT22;1510;51.072;6.678;2023-08-08T04:09:31;12.30;99.90
3001;DHT22;1510;51.072;6.678;2023-08-08T04:11:58;12.20;99.90
3001;DHT22;1510;51.072;6.678;2023-08-08T04:14:25;12.20;99.90
3001;DHT22;1510;51.072;6.678;2023-08-08T04:16:53;12.10;99.90
3001;DHT22;1510;51.072;6.678;2023-08-08T04:19:20;12.10;99.90
3001;DHT22;1510;51.072;6.678;2023-08-08T04:21:47;12.20;99.90
3001;DHT22;1510;51.072;6.678;2023-08-08T04:24:13;12.20;99.90
3001;DHT22;1510;51.072;6.678;2023-08-08T04:26:40;12.20;99.90
3001;DHT22;1510;51.072;6.678;2023-08-08T04:29:07;12.30;99.90
3001;DHT22;1510;51.072;6.678;2023-08-08T04:31:34;12.30;99.90
3001;DHT22;1510;51.072;6.678;2023-08-08T04:34:02;12.30;99.90
3001;DHT22;1510;51.072;6.678;2023-08-08T04:36:29;12.40;99.90
3001;DHT22;1510;51.072;6.678;2023-08-08T04:38:56;12.50;99.90
3001;DHT22;1510;51.072;6.678;2023-08-08T04:41:23;12.60;99.90
3001;DHT22;1510;51.072;6.678;2023-08-08T04:43:50;12.60;99.90
3001;DHT22;1510;51.072;6.678;2023-08-08T04:46:17;12.70;99.90
3001;DHT22;1510;51.072;6.678;2023-08-08T04:48:44;12.80;99.90
3001;DHT22;1510;51.072;6.678;2023-08-08T04:51:12;12.90;99.90
3001;DHT22;1510;51.072;6.678;2023-08-08T04:53:39;13.00;99.90
3001;DHT22;1510;51.072;6.678;2023-08-08T04:56:06;13.00;99.90
3001;DHT22;1510;51.072;6.678;2023-08-08T04:58:33;13.10;99.90
3001;DHT22;1510;51.072;6.678;2023-08-08T05:01:00;13.10;99.90
3001;DHT22;1510;51.072;6.678;2023-08-08T05:03:26;13.20;99.90
3001;DHT22;1510;51.072;6.678;2023-08-08T05:05:53;13.20;99.90
3001;DHT22;1510;51.072;6.678;2023-08-08T05:08:21;13.30;99.90
3001;DHT22;1510;51.072;6.678;2023-08-08T05:10:48;13.30;99.90
3001;DHT22;1510;51.072;6.678;2023-08-08T05:13:15;13.40;99.90
3001;DHT22;1510;51.072;6.678;2023-08-08T05:15:42;13.40;99.90
3001;DHT22;1510;51.072;6.678;2023-08-08T05:18:09;13.40;99.90
3001;DHT22;1510;51.072;6.678;2023-08-08T05:20:35;13.40;99.90
3001;DHT22;1510;51.072;6.678;2023-08-08T05:23:02;13.50;99.90
3001;DHT22;1510;51.072;6.678;2023-08-08T05:25:31;13.50;99.90
3001;DHT22;1510;51.072;6.678;2023-08-08T05:27:58;13.60;99.90
3001;DHT22;1510;51.072;6.678;2023-08-08T05:30:24;13.60;99.90
3001;DHT22;1510;51.072;6.678;2023-08-08T05:32:51;13.70;99.90
3001;DHT22;1510;51.072;6.678;2023-08-08T05:35:18;13.80;99.90
3001;DHT22;1510;51.072;6.678;2023-08-08T05:37:45;14.10;99.90
3001;DHT22;1510;51.072;6.678;2023-08-08T05:40:12;14.20;99.90
3001;DHT22;1510;51.072;6.678;2023-08-08T05:42:40;14.40;99.90
3001;DHT22;1510;51.072;6.678;2023-08-08T05:45:08;14.50;99.90
3001;DHT22;1510;51.072;6.678;2023-08-08T05:47:35;14.70;99.90
3001;DHT22;1510;51.072;6.678;2023-08-08T05:50:02;14.80;99.90
3001;DHT22;1510;51.072;6.678;2023-08-08T05:52:29;14.90;99.90
3001;DHT22;1510;51.072;6.678;2023-08-08T05:54:56;15.00;99.70
3001;DHT22;1510;51.072;6.678;2023-08-08T05:57:24;15.10;99.70
3001;DHT22;1510;51.072;6.678;2023-08-08T05:59:53;15.10;99.70
3001;DHT22;1510;51.072;6.678;2023-08-08T06:02:19;15.10;99.70
3001;DHT22;1510;51.072;6.678;2023-08-08T06:04:47;15.20;99.80
3001;DHT22;1510;51.072;6.678;2023-08-08T06:07:13;15.30;99.80
3001;DHT22;1510;51.072;6.678;2023-08-08T06:09:40;15.40;99.80
3001;DHT22;1510;51.072;6.678;2023-08-08T06:12:08;15.50;97.50
3001;DHT22;1510;51.072;6.678;2023-08-08T06:14:35;15.60;96.70
3001;DHT22;1510;51.072;6.678;2023-08-08T06:17:04;15.70;95.90
3001;DHT22;1510;51.072;6.678;2023-08-08T06:19:30;15.80;95.10
3001;DHT22;1510;51.072;6.678;2023-08-08T06:21:57;15.90;94.90
3001;DHT22;1510;51.072;6.678;2023-08-08T06:24:24;15.90;93.40
3001;DHT22;1510;51.072;6.678;2023-08-08T06:26:51;15.90;93.40
3001;DHT22;1510;51.072;6.678;2023-08-08T06:29:18;15.90;93.80
3001;DHT22;1510;51.072;6.678;2023-08-08T06:31:45;15.90;93.40
3001;DHT22;1510;51.072;6.678;2023-08-08T06:34:13;15.90;93.40
3001;DHT22;1510;51.072;6.678;2023-08-08T06:36:40;16.00;93.50
3001;DHT22;1510;51.072;6.678;2023-08-08T06:39:08;16.20;93.50
3001;DHT22;1510;51.072;6.678;2023-08-08T06:41:36;16.30;93.60
3001;DHT22;1510;51.072;6.678;2023-08-08T06:44:04;16.40;93.60
3001;DHT22;1510;51.072;6.678;2023-08-08T06:46:31;16.40;92.20
3001;DHT22;1510;51.072;6.678;2023-08-08T06:48:57;16.40;93.30
3001;DHT22;1510;51.072;6.678;2023-08-08T06:51:26;16.30;91.90
3001;DHT22;1510;51.072;6.678;2023-08-08T06:53:53;16.30;93.40
3001;DHT22;1510;51.072;6.678;2023-08-08T06:56:20;16.10;93.40
3001;DHT22;1510;51.072;6.678;2023-08-08T06:58:47;16.40;93.60
3001;DHT22;1510;51.072;6.678;2023-08-08T07:01:14;16.60;93.50
3001;DHT22;1510;51.072;6.678;2023-08-08T07:03:41;16.60;90.60
3001;DHT22;1510;51.072;6.678;2023-08-08T07:06:09;16.70;91.30
3001;DHT22;1510;51.072;6.678;2023-08-08T07:08:37;16.60;90.30
3001;DHT22;1510;51.072;6.678;2023-08-08T07:11:05;16.80;91.00
3001;DHT22;1510;51.072;6.678;2023-08-08T07:13:32;16.80;90.30
3001;DHT22;1510;51.072;6.678;2023-08-08T07:15:59;16.80;90.30
3001;DHT22;1510;51.072;6.678;2023-08-08T07:18:26;17.10;90.50
3001;DHT22;1510;51.072;6.678;2023-08-08T07:20:53;17.20;88.60
3001;DHT22;1510;51.072;6.678;2023-08-08T07:23:22;17.50;86.90
3001;DHT22;1510;51.072;6.678;2023-08-08T07:25:50;17.60;83.90
3001;DHT22;1510;51.072;6.678;2023-08-08T07:28:17;17.70;84.00
3001;DHT22;1510;51.072;6.678;2023-08-08T07:30:44;17.60;83.80
3001;DHT22;1510;51.072;6.678;2023-08-08T07:33:11;17.50;83.80
3001;DHT22;1510;51.072;6.678;2023-08-08T07:35:39;17.60;83.90
3001;DHT22;1510;51.072;6.678;2023-08-08T07:38:05;17.60;83.90
3001;DHT22;1510;51.072;6.678;2023-08-08T07:40:32;17.80;84.10
3001;DHT22;1510;51.072;6.678;2023-08-08T07:43:01;17.80;84.10
3001;DHT22;1510;51.072;6.678;2023-08-08T07:45:27;17.80;84.10
3001;DHT22;1510;51.072;6.678;2023-08-08T07:47:54;18.20;84.40
3001;DHT22;1510;51.072;6.678;2023-08-08T07:50:21;18.20;84.30
3001;DHT22;1510;51.072;6.678;2023-08-08T07:52:48;18.20;84.40
3001;DHT22;1510;51.072;6.678;2023-08-08T07:55:15;18.60;84.80
3001;DHT22;1510;51.072;6.678;2023-08-08T07:57:42;18.90;84.50
3001;DHT22;1510;51.072;6.678;2023-08-08T08:00:11;18.80;80.60
3001;DHT22;1510;51.072;6.678;2023-08-08T08:02:38;18.70;79.90
3001;DHT22;1510;51.072;6.678;2023-08-08T08:05:06;18.60;80.40
3001;DHT22;1510;51.072;6.678;2023-08-08T08:07:33;18.30;81.00
3001;DHT22;1510;51.072;6.678;2023-08-08T08:10:01;18.00;81.90
3001;DHT22;1510;51.072;6.678;2023-08-08T08:12:29;17.90;84.20
3001;DHT22;1510;51.072;6.678;2023-08-08T08:14:56;17.70;84.80
3001;DHT22;1510;51.072;6.678;2023-08-08T08:17:24;17.40;83.70
3001;DHT22;1510;51.072;6.678;2023-08-08T08:19:53;17.30;83.60
3001;DHT22;1510;51.072;6.678;2023-08-08T08:22:20;17.00;83.40
3001;DHT22;1510;51.072;6.678;2023-08-08T08:24:47;16.80;83.20
3001;DHT22;1510;51.072;6.678;2023-08-08T08:27:13;16.70;87.50
3001;DHT22;1510;51.072;6.678;2023-08-08T08:29:40;16.80;90.30
3001;DHT22;1510;51.072;6.678;2023-08-08T08:32:07;16.90;87.20
3001;DHT22;1510;51.072;6.678;2023-08-08T08:34:35;17.00;87.10
3001;DHT22;1510;51.072;6.678;2023-08-08T08:37:03;16.90;86.60
3001;DHT22;1510;51.072;6.678;2023-08-08T08:39:30;16.90;87.20
3001;DHT22;1510;51.072;6.678;2023-08-08T08:41:59;16.70;90.30
3001;DHT22;1510;51.072;6.678;2023-08-08T08:44:30;16.50;90.20
3001;DHT22;1510;51.072;6.678;2023-08-08T08:46:59;15.80;99.90
3001;DHT22;1510;51.072;6.678;2023-08-08T08:49:29;15.40;99.90
3001;DHT22;1510;51.072;6.678;2023-08-08T08:51:59;15.10;99.90
3001;DHT22;1510;51.072;6.678;2023-08-08T08:54:27;14.90;99.90
3001;DHT22;1510;51.072;6.678;2023-08-08T08:56:55;14.90;99.90
3001;DHT22;1510;51.072;6.678;2023-08-08T08:59:23;14.80;99.90
3001;DHT22;1510;51.072;6.678;2023-08-08T09:01:50;14.80;99.90
3001;DHT22;1510;51.072;6.678;2023-08-08T09:04:19;14.80;99.90
3001;DHT22;1510;51.072;6.678;2023-08-08T09:06:47;14.90;99.90
3001;DHT22;1510;51.072;6.678;2023-08-08T09:09:16;14.80;99.90
3001;DHT22;1510;51.072;6.678;2023-08-08T09:11:48;14.80;99.90
3001;DHT22;1510;51.072;6.678;2023-08-08T09:14:17;14.70;99.90
3001;DHT22;1510;51.072;6.678;2023-08-08T09:16:45;14.50;99.90
3001;DHT22;1510;51.072;6.678;2023-08-08T09:19:12;14.40;99.90
3001;DHT22;1510;51.072;6.678;2023-08-08T09:21:38;14.40;99.90
3001;DHT22;1510;51.072;6.678;2023-08-08T09:24:06;14.40;99.90
3001;DHT22;1510;51.072;6.678;2023-08-08T09:26:34;14.60;99.90
3001;DHT22;1510;51.072;6.678;2023-08-08T09:29:01;14.70;99.90
3001;DHT22;1510;51.072;6.678;2023-08-08T09:31:28;14.80;99.90
3001;DHT22;1510;51.072;6.678;2023-08-08T09:33:57;15.00;99.90
3001;DHT22;1510;51.072;6.678;2023-08-08T09:36:24;15.20;99.90
3001;DHT22;1510;51.072;6.678;2023-08-08T09:38:51;15.50;99.90
3001;DHT22;1510;51.072;6.678;2023-08-08T09:41:19;15.70;99.90
3001;DHT22;1510;51.072;6.678;2023-08-08T09:43:49;16.10;99.90
3001;DHT22;1510;51.072;6.678;2023-08-08T09:46:16;16.20;99.90
3001;DHT22;1510;51.072;6.678;2023-08-08T09:48:43;16.40;99.90
3001;DHT22;1510;51.072;6.678;2023-08-08T09:51:10;16.40;99.90
3001;DHT22;1510;51.072;6.678;2023-08-08T09:53:39;16.60;99.90
3001;DHT22;1510;51.072;6.678;2023-08-08T09:56:06;16.70;99.90
3001;DHT22;1510;51.072;6.678;2023-08-08T09:58:34;16.90;99.90
3001;DHT22;1510;51.072;6.678;2023-08-08T10:01:02;17.00;99.90
3001;DHT22;1510;51.072;6.678;2023-08-08T10:03:31;17.10;99.90
3001;DHT22;1510;51.072;6.678;2023-08-08T10:05:58;17.40;99.90
3001;DHT22;1510;51.072;6.678;2023-08-08T10:08:25;17.60;97.50
3001;DHT22;1510;51.072;6.678;2023-08-08T10:10:53;17.90;96.90
3001;DHT22;1510;51.072;6.678;2023-08-08T10:13:20;18.00;94.30
3001;DHT22;1510;51.072;6.678;2023-08-08T10:15:47;18.40;94.50
3001;DHT22;1510;51.072;6.678;2023-08-08T10:18:16;18.40;92.60
3001;DHT22;1510;51.072;6.678;2023-08-08T10:20:43;18.30;92.40
3001;DHT22;1510;51.072;6.678;2023-08-08T10:23:11;18.20;90.90
3001;DHT22;1510;51.072;6.678;2023-08-08T10:25:44;18.00;90.80
3001;DHT22;1510;51.072;6.678;2023-08-08T10:28:13;17.80;92.80
3001;DHT22;1510;51.072;6.678;2023-08-08T10:30:44;17.70;91.80
3001;DHT22;1510;51.072;6.678;2023-08-08T10:33:18;17.60;94.10
3001;DHT22;1510;51.072;6.678;2023-08-08T10:35:56;17.50;90.70
3001;DHT22;1510;51.072;6.678;2023-08-08T10:38:24;17.60;93.00
3001;DHT22;1510;51.072;6.678;2023-08-08T10:40:56;17.80;92.70
3001;DHT22;1510;51.072;6.678;2023-08-08T10:43:26;18.00;90.60
3001;DHT22;1510;51.072;6.678;2023-08-08T10:45:57;17.80;84.90
3001;DHT22;1510;51.072;6.678;2023-08-08T10:48:27;17.90;84.20
3001;DHT22;1510;51.072;6.678;2023-08-08T10:50:55;18.00;84.20
3001;DHT22;1510;51.072;6.678;2023-08-08T10:53:23;18.30;84.50
3001;DHT22;1510;51.072;6.678;2023-08-08T10:55:58;18.40;84.60
3001;DHT22;1510;51.072;6.678;2023-08-08T10:58:35;18.70;84.90
3001;DHT22;1510;51.072;6.678;2023-08-08T11:01:03;18.70;77.30
3001;DHT22;1510;51.072;6.678;2023-08-08T11:03:35;18.60;82.00
3001;DHT22;1510;51.072;6.678;2023-08-08T11:06:03;18.30;76.60
3001;DHT22;1510;51.072;6.678;2023-08-08T11:08:31;18.20;76.80
3001;DHT22;1510;51.072;6.678;2023-08-08T11:10:58;18.10;84.30
3001;DHT22;1510;51.072;6.678;2023-08-08T11:13:25;17.80;84.00
3001;DHT22;1510;51.072;6.678;2023-08-08T11:15:52;17.70;84.00
3001;DHT22;1510;51.072;6.678;2023-08-08T11:18:20;17.50;83.80
3001;DHT22;1510;51.072;6.678;2023-08-08T11:20:49;17.30;83.60
3001;DHT22;1510;51.072;6.678;2023-08-08T11:23:16;17.10;88.10
3001;DHT22;1510;51.072;6.678;2023-08-08T11:25:45;16.90;90.40
3001;DHT22;1510;51.072;6.678;2023-08-08T11:28:12;16.80;90.30
3001;DHT22;1510;51.072;6.678;2023-08-08T11:30:42;16.90;90.40
3001;DHT22;1510;51.072;6.678;2023-08-08T11:33:09;17.10;90.50
3001;DHT22;1510;51.072;6.678;2023-08-08T11:35:37;17.20;89.00
3001;DHT22;1510;51.072;6.678;2023-08-08T11:38:06;17.30;83.60
3001;DHT22;1510;51.072;6.678;2023-08-08T11:40:33;17.40;83.70
3001;DHT22;1510;51.072;6.678;2023-08-08T11:43:00;17.30;83.60
3001;DHT22;1510;51.072;6.678;2023-08-08T11:45:27;17.20;90.50
3001;DHT22;1510;51.072;6.678;2023-08-08T11:47:55;16.90;93.80
3001;DHT22;1510;51.072;6.678;2023-08-08T11:50:24;16.50;93.70
3001;DHT22;1510;51.072;6.678;2023-08-08T11:52:54;16.40;97.10
3001;DHT22;1510;51.072;6.678;2023-08-08T11:55:27;16.40;97.90
3001;DHT22;1510;51.072;6.678;2023-08-08T11:57:54;16.50;97.20
3001;DHT22;1510;51.072;6.678;2023-08-08T12:00:26;16.60;99.80
3001;DHT22;1510;51.072;6.678;2023-08-08T12:02:53;16.60;98.20
3001;DHT22;1510;51.072;6.678;2023-08-08T12:05:21;16.40;97.90
3001;DHT22;1510;51.072;6.678;2023-08-08T12:07:48;16.20;99.80
3001;DHT22;1510;51.072;6.678;2023-08-08T12:10:18;16.10;99.90
3001;DHT22;1510;51.072;6.678;2023-08-08T12:12:47;15.90;99.90
3001;DHT22;1510;51.072;6.678;2023-08-08T12:15:19;15.80;99.90
3001;DHT22;1510;51.072;6.678;2023-08-08T12:17:47;15.50;99.90
3001;DHT22;1510;51.072;6.678;2023-08-08T12:20:15;15.40;99.90
3001;DHT22;1510;51.072;6.678;2023-08-08T12:22:42;15.20;99.90
3001;DHT22;1510;51.072;6.678;2023-08-08T12:25:09;15.10;99.90
3001;DHT22;1510;51.072;6.678;2023-08-08T12:27:36;15.00;99.90
3001;DHT22;1510;51.072;6.678;2023-08-08T12:30:07;15.00;99.90
3001;DHT22;1510;51.072;6.678;2023-08-08T12:32:34;15.00;99.90
3001;DHT22;1510;51.072;6.678;2023-08-08T12:35:00;15.10;99.90
3001;DHT22;1510;51.072;6.678;2023-08-08T12:37:27;15.40;99.90
3001;DHT22;1510;51.072;6.678;2023-08-08T12:39:54;15.70;99.90
3001;DHT22;1510;51.072;6.678;2023-08-08T12:42:22;16.10;99.90
3001;DHT22;1510;51.072;6.678;2023-08-08T12:44:49;16.40;99.90
3001;DHT22;1510;51.072;6.678;2023-08-08T12:47:18;16.60;99.90
3001;DHT22;1510;51.072;6.678;2023-08-08T12:49:46;16.80;99.90
3001;DHT22;1510;51.072;6.678;2023-08-08T12:52:13;16.90;99.90
3001;DHT22;1510;51.072;6.678;2023-08-08T12:54:40;17.20;99.90
3001;DHT22;1510;51.072;6.678;2023-08-08T12:57:07;17.60;98.50
3001;DHT22;1510;51.072;6.678;2023-08-08T12:59:34;18.10;96.10
3001;DHT22;1510;51.072;6.678;2023-08-08T13:02:01;19.00;94.70
3001;DHT22;1510;51.072;6.678;2023-08-08T13:04:29;19.80;91.60
3001;DHT22;1510;51.072;6.678;2023-08-08T13:06:56;21.50;87.40
3001;DHT22;1510;51.072;6.678;2023-08-08T13:09:23;22.30;72.20
3001;DHT22;1510;51.072;6.678;2023-08-08T13:11:50;22.00;62.50
3001;DHT22;1510;51.072;6.678;2023-08-08T13:14:17;21.40;58.70
3001;DHT22;1510;51.072;6.678;2023-08-08T13:16:43;20.90;62.50
3001;DHT22;1510;51.072;6.678;2023-08-08T13:19:11;20.50;60.60
3001;DHT22;1510;51.072;6.678;2023-08-08T13:21:39;20.10;59.30
3001;DHT22;1510;51.072;6.678;2023-08-08T13:24:07;20.00;61.80
3001;DHT22;1510;51.072;6.678;2023-08-08T13:26:35;19.50;61.40
3001;DHT22;1510;51.072;6.678;2023-08-08T13:29:02;19.30;64.10
3001;DHT22;1510;51.072;6.678;2023-08-08T13:31:29;19.20;61.10
3001;DHT22;1510;51.072;6.678;2023-08-08T13:33:56;19.40;61.30
3001;DHT22;1510;51.072;6.678;2023-08-08T13:36:23;19.70;61.60
3001;DHT22;1510;51.072;6.678;2023-08-08T13:38:51;19.90;53.20
3001;DHT22;1510;51.072;6.678;2023-08-08T13:41:18;20.40;53.60
3001;DHT22;1510;51.072;6.678;2023-08-08T13:43:45;21.00;52.30
3001;DHT22;1510;51.072;6.678;2023-08-08T13:46:11;22.20;52.20
3001;DHT22;1510;51.072;6.678;2023-08-08T13:48:38;22.10;55.20
3001;DHT22;1510;51.072;6.678;2023-08-08T13:51:05;21.80;54.90
3001;DHT22;1510;51.072;6.678;2023-08-08T13:53:33;21.50;54.60
3001;DHT22;1510;51.072;6.678;2023-08-08T13:56:01;21.20;54.30
3001;DHT22;1510;51.072;6.678;2023-08-08T13:58:28;20.70;53.90
3001;DHT22;1510;51.072;6.678;2023-08-08T14:00:55;20.10;53.30
3001;DHT22;1510;51.072;6.678;2023-08-08T14:03:23;19.70;52.90
3001;DHT22;1510;51.072;6.678;2023-08-08T14:05:50;19.70;58.30
3001;DHT22;1510;51.072;6.678;2023-08-08T14:08:18;19.90;56.20
3001;DHT22;1510;51.072;6.678;2023-08-08T14:10:46;20.30;57.90
3001;DHT22;1510;51.072;6.678;2023-08-08T14:13:14;20.90;54.10
3001;DHT22;1510;51.072;6.678;2023-08-08T14:15:41;22.20;55.20
3001;DHT22;1510;51.072;6.678;2023-08-08T14:18:08;22.30;28.70
3001;DHT22;1510;51.072;6.678;2023-08-08T14:20:36;22.00;32.30
3001;DHT22;1510;51.072;6.678;2023-08-08T14:23:03;21.70;36.80
3001;DHT22;1510;51.072;6.678;2023-08-08T14:25:31;21.10;36.30
3001;DHT22;1510;51.072;6.678;2023-08-08T14:27:57;20.80;37.60
3001;DHT22;1510;51.072;6.678;2023-08-08T14:30:26;21.50;41.30
3001;DHT22;1510;51.072;6.678;2023-08-08T14:32:54;22.40;30.50
3001;DHT22;1510;51.072;6.678;2023-08-08T14:35:21;22.60;26.90
3001;DHT22;1510;51.072;6.678;2023-08-08T14:37:48;22.00;28.50
3001;DHT22;1510;51.072;6.678;2023-08-08T14:40:14;21.40;32.60
3001;DHT22;1510;51.072;6.678;2023-08-08T14:42:41;20.60;35.90
3001;DHT22;1510;51.072;6.678;2023-08-08T14:45:09;20.30;36.70
3001;DHT22;1510;51.072;6.678;2023-08-08T14:47:38;21.60;36.80
3001;DHT22;1510;51.072;6.678;2023-08-08T14:50:06;21.50;36.40
3001;DHT22;1510;51.072;6.678;2023-08-08T14:52:33;21.20;36.40
3001;DHT22;1510;51.072;6.678;2023-08-08T14:55:00;22.00;28.50
3001;DHT22;1510;51.072;6.678;2023-08-08T14:57:27;23.00;21.90
3001;DHT22;1510;51.072;6.678;2023-08-08T14:59:54;23.50;22.20
3001;DHT22;1510;51.072;6.678;2023-08-08T15:02:21;23.80;18.70
3001;DHT22;1510;51.072;6.678;2023-08-08T15:04:49;24.00;15.10
3001;DHT22;1510;51.072;6.678;2023-08-08T15:07:16;24.10;15.20
3001;DHT22;1510;51.072;6.678;2023-08-08T15:09:43;23.70;14.90
3001;DHT22;1510;51.072;6.678;2023-08-08T15:12:11;23.40;17.00
3001;DHT22;1510;51.072;6.678;2023-08-08T15:14:38;22.60;16.90
3001;DHT22;1510;51.072;6.678;2023-08-08T15:17:05;22.30;18.80
3001;DHT22;1510;51.072;6.678;2023-08-08T15:19:32;22.40;21.40
3001;DHT22;1510;51.072;6.678;2023-08-08T15:22:00;22.30;21.40
3001;DHT22;1510;51.072;6.678;2023-08-08T15:24:27;22.00;21.10
3001;DHT22;1510;51.072;6.678;2023-08-08T15:26:54;22.20;21.30
3001;DHT22;1510;51.072;6.678;2023-08-08T15:29:20;22.80;21.70
3001;DHT22;1510;51.072;6.678;2023-08-08T15:31:47;22.50;21.50
3001;DHT22;1510;51.072;6.678;2023-08-08T15:34:14;22.20;21.30
3001;DHT22;1510;51.072;6.678;2023-08-08T15:36:41;22.10;19.40
3001;DHT22;1510;51.072;6.678;2023-08-08T15:39:09;23.20;15.10
3001;DHT22;1510;51.072;6.678;2023-08-08T15:41:37;23.80;14.90
3001;DHT22;1510;51.072;6.678;2023-08-08T15:44:04;24.30;7.60
3001;DHT22;1510;51.072;6.678;2023-08-08T15:46:31;24.90;7.00
3001;DHT22;1510;51.072;6.678;2023-08-08T15:48:57;25.40;3.30
3001;DHT22;1510;51.072;6.678;2023-08-08T15:51:24;24.70;1.00
3001;DHT22;1510;51.072;6.678;2023-08-08T15:53:51;24.40;4.20
3001;DHT22;1510;51.072;6.678;2023-08-08T15:56:19;23.40;7.00
3001;DHT22;1510;51.072;6.678;2023-08-08T15:58:46;22.60;9.90
3001;DHT22;1510;51.072;6.678;2023-08-08T16:01:13;22.00;13.70
3001;DHT22;1510;51.072;6.678;2023-08-08T16:03:41;21.70;16.50